Time;durP1;ratioP1;P1;durP2;ratioP2;P2;SDS_P1;SDS_P2;PMS_P1;PMS_P2;Temp;Humidity;BMP_temperature;BMP_pressure;BME280_temperature;BME280_humidity;BME280_pressure;Samples;Min_cycle;Max_cycle;Signal;HPM_P1;HPM_P2
2022/07/15 00:02:02;1364529.00;4.55;2390.70;0.00;0.00;0.62;;;;;24.20;1.00;;;;;;2314701;40;2163;-85
2022/07/15 00:04:30;326007.00;1.09;562.62;1678.00;0.01;3.53;;;;;24.20;1.00;;;;;;2276727;60;1581;-85
2022/07/15 00:06:57;358317.00;1.19;618.16;28627.00;0.10;50.21;;;;;23.80;1.00;;;;;;2292050;39;3605;-85
2022/07/15 00:12:07;234632.00;0.78;405.52;0.00;0.00;0.62;;;;;23.70;1.00;;;;;;2277834;39;3564;-84
2022/07/15 00:14:34;402232.00;1.34;693.64;76063.00;0.25;132.24;;;;;23.40;1.00;;;;;;2272603;61;1045;-85
2022/07/15 00:19:35;911977.00;3.04;1577.17;0.00;0.00;0.62;;;;;23.40;1.00;;;;;;2270203;61;1416;-86
2022/07/15 00:22:02;229176.00;0.76;396.13;0.00;0.00;0.62;;;;;23.30;1.00;;;;;;2309605;40;3779;-85
2022/07/15 00:27:02;816466.00;2.72;1409.86;0.00;0.00;0.62;;;;;23.30;1.00;;;;;;2314986;39;3627;-86
2022/07/15 00:29:29;353283.00;1.18;609.50;0.00;0.00;0.62;;;;;23.50;1.00;;;;;;2283662;39;3627;-86
2022/07/15 00:31:56;299993.00;1.00;517.91;8039.00;0.03;14.55;;;;;23.50;1.00;;;;;;2276719;60;1657;-84
2022/07/15 00:34:24;409715.00;1.37;706.51;52906.00;0.18;92.21;;;;;23.60;1.00;;;;;;2276489;60;1797;-84
2022/07/15 00:36:51;219364.00;0.73;379.25;0.00;0.00;0.62;;;;;23.40;1.00;;;;;;2330283;39;3753;-84
2022/07/15 00:39:18;208644.00;0.70;360.80;15849.00;0.05;28.08;;;;;23.60;1.00;;;;;;2295063;39;3609;-85
2022/07/15 00:41:46;477562.00;1.59;823.20;15584.00;0.05;27.62;;;;;23.40;1.00;;;;;;2276387;60;1635;-86
2022/07/15 00:44:14;279838.00;0.93;483.26;0.00;0.00;0.62;;;;;23.40;1.00;;;;;;2276549;60;1654;-85
2022/07/15 00:46:42;273006.00;0.91;471.51;0.00;0.00;0.62;;;;;23.20;1.00;;;;;;2276640;60;1144;-86
2022/07/15 00:49:11;312073.00;1.04;538.67;0.00;0.00;0.62;;;;;23.10;1.00;;;;;;2276578;60;1911;-85
2022/07/15 00:51:41;287944.00;0.96;497.19;0.00;0.00;0.62;;;;;23.10;1.00;;;;;;2276438;60;1268;-84
2022/07/15 00:54:10;192093.00;0.64;332.31;0.00;0.00;0.62;;;;;23.10;1.00;;;;;;2276579;60;1551;-84
2022/07/15 00:56:41;215386.00;0.72;372.40;53871.00;0.18;93.88;;;;;23.30;1.00;;;;;;2276569;60;1003;-84
2022/07/15 00:59:09;194588.00;0.65;336.61;0.00;0.00;0.62;;;;;23.20;1.00;;;;;;2276580;60;1694;-86
2022/07/15 01:01:38;186809.00;0.62;323.21;31528.00;0.11;55.23;;;;;23.00;1.00;;;;;;2276437;60;1613;-85
2022/07/15 01:04:07;564161.00;1.88;972.38;37038.00;0.12;64.76;;;;;22.90;1.00;;;;;;2300987;56;3769;-85
2022/07/15 01:06:34;260503.00;0.87;450.01;23687.00;0.08;41.65;;;;;22.70;1.00;;;;;;2276545;60;1106;-86
2022/07/15 01:09:01;599341.00;2.00;1033.08;49021.00;0.16;85.49;;;;;22.70;1.00;;;;;;2283872;56;3758;-85
2022/07/15 01:11:30;260816.00;0.87;450.55;0.00;0.00;0.62;;;;;22.80;1.00;;;;;;2306336;39;3605;-85
2022/07/15 01:13:58;371629.00;1.24;641.04;69475.00;0.23;120.85;;;;;22.90;1.00;;;;;;2276537;60;1265;-85
2022/07/15 01:16:25;1083830.00;3.61;1881.53;107219.00;0.36;186.03;;;;;23.00;1.00;;;;;;2276571;60;1041;-86
2022/07/15 01:18:54;905423.00;3.02;1565.65;108673.00;0.36;188.54;;;;;22.90;1.00;;;;;;2276658;60;1172;-86
2022/07/15 01:21:23;1509517.00;5.03;2661.04;193490.00;0.64;334.72;;;;;22.90;1.00;;;;;;2276549;60;1682;-86
2022/07/15 01:23:50;724881.00;2.42;1250.41;143737.00;0.48;249.01;;;;;22.90;1.00;;;;;;2276568;60;1272;-85
2022/07/15 01:26:18;532485.00;1.77;917.77;72185.00;0.24;125.54;;;;;23.00;1.00;;;;;;2276512;60;1106;-88
2022/07/15 01:31:16;1659381.00;5.53;2946.77;64572.00;0.22;112.38;;;;;22.90;1.00;;;;;;1981557;40;3435;-85
2022/07/15 01:33:43;454000.00;1.51;782.66;0.00;0.00;0.62;;;;;22.70;1.00;;;;;;2276500;60;1144;-86
2022/07/15 01:36:10;264700.00;0.88;457.23;29518.00;0.10;51.75;;;;;22.50;1.00;;;;;;2283877;55;3773;-84
2022/07/15 01:38:39;341824.00;1.14;589.81;0.00;0.00;0.62;;;;;22.50;1.00;;;;;;2276392;60;949;-85
2022/07/15 01:41:06;233247.00;0.78;403.13;0.00;0.00;0.62;;;;;22.50;1.00;;;;;;2276652;60;1250;-85
2022/07/15 01:43:33;192234.00;0.64;332.55;172.00;0.00;0.92;;;;;22.40;1.00;;;;;;2276577;60;983;-86
2022/07/15 01:46:00;312794.00;1.04;539.91;0.00;0.00;0.62;;;;;22.30;1.00;;;;;;2276529;60;895;-86
2022/07/15 01:51:12;360380.00;1.20;621.70;69652.00;0.23;121.16;;;;;22.60;1.00;;;;;;2276485;60;1993;-86
2022/07/15 01:53:42;191077.00;0.64;330.56;0.00;0.00;0.62;;;;;22.60;1.00;;;;;;2276449;60;1006;-86
2022/07/15 01:58:38;1346335.00;4.49;2357.16;16925.00;0.06;29.94;;;;;22.40;1.00;;;;;;2293167;56;3577;-84
2022/07/15 02:01:07;218891.00;0.73;378.44;0.00;0.00;0.62;;;;;22.00;1.00;;;;;;2277170;61;1311;-86
2022/07/15 02:03:34;114565.00;0.38;198.71;0.00;0.00;0.62;;;;;22.10;1.00;;;;;;2276278;60;1740;-87
2022/07/15 02:06:02;285236.00;0.95;492.54;0.00;0.00;0.62;;;;;22.00;1.00;;;;;;2276253;60;1563;-86
2022/07/15 02:11:11;570005.00;1.90;982.46;60151.00;0.20;104.74;;;;;21.80;1.00;;;;;;2292108;40;1969;-86
2022/07/15 02:13:38;201108.00;0.67;347.83;11215.00;0.04;20.05;;;;;21.80;1.00;;;;;;2278130;55;3767;-87
2022/07/15 02:16:06;621246.00;2.07;1070.92;94161.00;0.31;163.49;;;;;21.90;1.00;;;;;;2316051;39;3607;-84
2022/07/15 02:18:33;832943.00;2.78;1438.64;45114.00;0.15;78.74;;;;;22.10;1.00;;;;;;2276189;60;1449;-85
2022/07/15 02:21:02;1022450.00;3.41;1772.27;123778.00;0.41;214.60;;;;;21.90;1.00;;;;;;2278295;55;3745;-85
2022/07/15 02:23:29;1449794.00;4.83;2549.00;89409.00;0.30;155.29;;;;;21.80;1.00;;;;;;2276197;60;1668;-85
2022/07/15 02:25:57;1231211.00;4.10;2146.75;157488.00;0.52;272.71;;;;;21.90;1.00;;;;;;2276288;60;1050;-85
2022/07/15 02:28:26;1551563.00;5.17;2740.53;207477.00;0.69;358.79;;;;;21.60;1.00;;;;;;2334924;56;3751;-84
2022/07/15 02:30:53;1193267.00;3.98;2078.05;121115.00;0.40;210.01;;;;;21.80;1.00;;;;;;2276075;60;2010;-86
2022/07/15 02:33:20;1042964.00;3.48;1808.72;159264.00;0.53;275.77;;;;;21.90;1.00;;;;;;2276258;60;1622;-85
2022/07/15 02:40:46;1242932.00;4.14;2168.04;0.00;0.00;0.62;;;;;21.30;1.00;;;;;;2269660;61;1440;-86
2022/07/15 02:43:13;474142.00;1.58;817.32;78560.00;0.26;136.55;;;;;21.30;1.00;;;;;;2349715;40;3568;-84
2022/07/15 02:45:43;233992.00;0.78;404.42;0.00;0.00;0.62;;;;;21.40;1.00;;;;;;2276150;60;961;-86
2022/07/15 02:48:10;214616.00;0.72;371.08;0.00;0.00;0.62;;;;;21.50;1.00;;;;;;2276312;60;941;-86
2022/07/15 02:50:38;137245.00;0.46;237.82;0.00;0.00;0.62;;;;;21.40;1.00;;;;;;2276108;60;2000;-86
2022/07/15 02:53:06;252650.00;0.84;436.51;58226.00;0.19;101.41;;;;;21.20;1.00;;;;;;2276276;60;1050;-87
2022/07/15 02:55:33;206331.00;0.69;356.82;0.00;0.00;0.62;;;;;21.00;1.00;;;;;;2276399;60;893;-86
2022/07/15 02:58:00;521100.00;1.74;898.16;53419.00;0.18;93.10;;;;;20.90;1.00;;;;;;2276232;60;1191;-86
2022/07/15 03:00:27;193269.00;0.64;334.34;0.00;0.00;0.62;;;;;20.90;1.00;;;;;;2276138;60;1512;-84
2022/07/15 03:02:56;459950.00;1.53;792.90;0.00;0.00;0.62;;;;;20.80;1.00;;;;;;2276258;60;998;-84
2022/07/15 03:05:23;1840299.00;6.13;3301.40;128475.00;0.43;222.70;;;;;20.70;1.00;;;;;;2308880;40;3586;-86
2022/07/15 03:07:50;850941.00;2.84;1470.11;76934.00;0.26;133.74;;;;;20.70;1.00;;;;;;2276085;60;990;-86
2022/07/15 03:10:18;1055259.00;3.52;1830.59;60130.00;0.20;104.70;;;;;20.60;1.00;;;;;;2276083;60;1980;-86
2022/07/15 03:12:45;635546.00;2.12;1095.64;111876.00;0.37;194.07;;;;;20.60;1.00;;;;;;2276252;60;888;-87
2022/07/15 03:15:12;444580.00;1.48;766.46;15717.00;0.05;27.85;;;;;20.60;1.00;;;;;;2275965;60;1108;-86
2022/07/15 03:17:41;264737.00;0.88;457.29;64127.00;0.21;111.61;;;;;20.60;1.00;;;;;;2276195;60;1122;-85
2022/07/15 03:20:11;252169.00;0.84;435.68;0.00;0.00;0.62;;;;;20.50;1.00;;;;;;2276045;60;1615;-85
2022/07/15 03:22:38;290354.00;0.97;501.34;18299.00;0.06;32.32;;;;;20.40;1.00;;;;;;2276068;60;1297;-85
2022/07/15 03:25:07;210447.00;0.70;363.90;0.00;0.00;0.62;;;;;20.50;1.00;;;;;;2276053;60;1733;-85
2022/07/15 03:27:34;288295.00;0.96;497.80;26864.00;0.09;47.15;;;;;20.50;1.00;;;;;;2276119;60;984;-84
2022/07/15 03:30:02;199100.00;0.66;344.37;0.00;0.00;0.62;;;;;20.50;1.00;;;;;;2276390;60;2010;-86
2022/07/15 03:32:29;444086.00;1.48;765.61;11442.00;0.04;20.45;;;;;20.50;1.00;;;;;;2276808;60;1411;-85
2022/07/15 03:34:57;228180.00;0.76;394.42;29179.00;0.10;51.16;;;;;20.60;1.00;;;;;;2278779;55;3754;-85
2022/07/15 03:37:26;429929.00;1.43;741.26;60908.00;0.20;106.05;;;;;20.50;1.00;;;;;;2276782;60;1520;-85
2022/07/15 03:42:26;742258.00;2.47;1280.60;34112.00;0.11;59.70;;;;;20.20;1.00;;;;;;2270100;61;1426;-85
2022/07/15 03:44:53;218961.00;0.73;378.56;0.00;0.00;0.62;;;;;20.10;1.00;;;;;;2268688;61;925;-86
2022/07/15 03:47:20;236404.00;0.79;408.57;14804.00;0.05;26.27;;;;;20.00;1.00;;;;;;2268507;61;1536;-86
2022/07/15 03:49:47;591706.00;1.97;1019.90;82112.00;0.27;142.69;;;;;19.80;1.00;;;;;;2268636;61;1920;-85
2022/07/15 03:52:15;435513.00;1.45;750.87;0.00;0.00;0.62;;;;;19.80;1.00;;;;;;2291161;56;3762;-86
2022/07/15 03:54:43;348239.00;1.16;600.83;85692.00;0.29;148.87;;;;;19.80;1.00;;;;;;2277480;61;1558;-86
2022/07/15 03:57:11;214108.00;0.71;370.20;0.00;0.00;0.62;;;;;19.80;1.00;;;;;;2320176;39;3752;-85
2022/07/15 04:02:14;398751.00;1.33;687.66;0.00;0.00;0.62;;;;;19.80;1.00;;;;;;2288417;56;2083;-86
2022/07/15 04:04:41;305896.00;1.02;528.06;0.00;0.00;0.62;;;;;20.00;1.00;;;;;;2288764;40;3705;-84
2022/07/15 04:07:09;754642.00;2.52;1302.13;55142.00;0.18;96.08;;;;;20.10;1.00;;;;;;2272400;61;1806;-86
2022/07/15 04:09:36;328008.00;1.09;566.06;0.00;0.00;0.62;;;;;20.00;1.00;;;;;;2272556;61;922;-87
2022/07/15 04:12:06;716009.00;2.39;1235.01;12707.00;0.04;22.64;;;;;20.10;1.00;;;;;;2283746;40;3537;-86
2022/07/15 04:19:41;21147.00;0.07;37.26;0.00;0.00;0.62;;;;;20.10;1.00;;;;;;2450447;39;2134;-87
2022/07/15 04:22:09;336406.00;1.12;580.50;35992.00;0.12;62.95;;;;;20.30;1.00;;;;;;2386524;39;3700;-85
2022/07/15 04:24:39;118926984.00;396.42;68137296.00;64067.00;0.21;111.51;;;;;20.20;1.00;;;;;;2292424;55;3936;-85
2022/07/15 04:27:08;861663.00;2.87;1488.88;50039.00;0.17;87.25;;;;;20.00;1.00;;;;;;2289332;39;3741;-85
2022/07/15 04:29:36;687336.00;2.29;1185.28;62371.00;0.21;108.58;;;;;19.80;1.00;;;;;;2336494;40;3628;-85
2022/07/15 04:32:15;1052211.00;3.51;1825.17;66703.00;0.22;116.06;;;;;19.50;1.00;;;;;;2276485;60;1993;-86
2022/07/15 04:37:16;1552576.00;5.18;2742.45;0.00;0.00;0.62;;;;;19.70;1.00;;;;;;2270295;61;1498;-85
2022/07/15 04:39:44;555227.00;1.85;956.97;59439.00;0.20;103.51;;;;;19.90;1.00;;;;;;2317366;40;3691;-84
2022/07/15 04:42:16;734834.00;2.45;1267.70;93173.00;0.31;161.79;;;;;20.00;1.00;;;;;;2283798;56;3777;-85
2022/07/15 04:47:19;428877.00;1.43;739.45;37092.00;0.12;64.86;;;;;20.00;1.00;;;;;;2396293;40;2114;-85
2022/07/15 04:52:19;1495142.00;4.98;2633.98;0.00;0.00;0.62;;;;;19.90;1.00;;;;;;2270114;61;1336;-86
2022/07/15 04:54:46;1247225.00;4.16;2175.84;84152.00;0.28;146.21;;;;;19.80;1.00;;;;;;2268409;61;1749;-85
2022/07/15 04:57:17;669918.00;2.23;1155.11;60721.00;0.20;105.72;;;;;19.80;1.00;;;;;;2268503;61;1803;-88
2022/07/15 04:59:45;809028.00;2.70;1396.87;112581.00;0.38;195.28;;;;;20.00;1.00;;;;;;2268359;61;1153;-87
2022/07/15 05:02:13;1070334.00;3.57;1857.45;71017.00;0.24;123.52;;;;;20.10;1.00;;;;;;2305185;40;3771;-85
2022/07/15 05:04:41;678084.00;2.26;1169.25;103440.00;0.34;179.51;;;;;20.00;1.00;;;;;;2293010;39;3605;-86
2022/07/15 05:07:10;1032823.00;3.44;1790.69;9001.00;0.03;16.22;;;;;20.10;1.00;;;;;;2361939;40;3750;-85
2022/07/15 05:12:09;1361422.00;4.54;2384.96;0.00;0.00;0.62;;;;;20.30;1.00;;;;;;2269734;61;1971;-86
2022/07/15 05:14:40;425137.00;1.42;733.02;0.00;0.00;0.62;;;;;20.30;1.00;;;;;;2281758;55;3772;-86
2022/07/15 05:17:07;205945.00;0.69;356.16;0.00;0.00;0.62;;;;;20.30;1.00;;;;;;2276009;60;1742;-85
2022/07/15 05:22:10;322321.00;1.07;556.29;28929.00;0.10;50.73;;;;;20.30;1.00;;;;;;2359139;40;2244;-85
2022/07/15 05:24:40;576646.00;1.92;993.91;2210.00;0.01;4.45;;;;;20.40;1.00;;;;;;2287312;40;3563;-87
2022/07/15 05:27:07;332170.00;1.11;573.22;0.00;0.00;0.62;;;;;20.60;1.00;;;;;;2286410;55;3781;-87
2022/07/15 05:29:37;269543.00;0.90;465.56;0.00;0.00;0.62;;;;;20.90;1.00;;;;;;2276101;60;1629;-88
2022/07/15 05:32:07;242281.00;0.81;418.67;0.00;0.00;0.62;;;;;21.20;1.00;;;;;;2352393;55;3810;-86
2022/07/15 05:34:34;430886.00;1.44;742.91;45734.00;0.15;79.81;;;;;21.50;1.00;;;;;;2276301;60;930;-86
2022/07/15 05:37:02;541814.00;1.81;933.85;91099.00;0.30;158.21;;;;;21.50;1.00;;;;;;2297715;39;3608;-85
2022/07/15 05:39:29;392193.00;1.31;676.38;5832.00;0.02;10.73;;;;;21.70;1.00;;;;;;2276322;60;1236;-89
2022/07/15 05:41:58;227517.00;0.76;393.28;82006.00;0.27;142.50;;;;;22.10;1.00;;;;;;2276302;60;1331;-85
2022/07/15 05:44:25;412744.00;1.38;711.71;0.00;0.00;0.62;;;;;22.50;1.00;;;;;;2304779;40;3596;-87
2022/07/15 05:46:53;392333.00;1.31;676.63;0.00;0.00;0.62;;;;;22.30;1.00;;;;;;2276320;60;1244;-84
2022/07/15 05:49:22;345214.00;1.15;595.64;41804.00;0.14;73.01;;;;;23.40;1.00;;;;;;2303860;40;3600;-87
2022/07/15 05:51:49;615374.00;2.05;1060.77;0.00;0.00;0.62;;;;;24.90;1.00;;;;;;2299225;40;3593;-85
2022/07/15 05:56:47;1250506.00;4.17;2181.81;46524.00;0.16;81.17;;;;;27.70;1.00;;;;;;2284398;55;3652;-86
2022/07/15 06:01:43;1193218.00;3.98;2077.96;58226.00;0.19;101.41;;;;;29.70;1.00;;;;;;2270129;61;1518;-87
2022/07/15 06:04:10;174074.00;0.58;301.28;0.00;0.00;0.62;;;;;30.70;1.00;;;;;;2268185;61;1562;-89
2022/07/15 06:06:39;256090.00;0.85;442.42;0.00;0.00;0.62;;;;;31.00;1.00;;;;;;2268335;61;1337;-87
2022/07/15 06:09:06;236557.00;0.79;408.83;0.00;0.00;0.62;;;;;31.50;1.00;;;;;;2268113;61;1584;-86
2022/07/15 06:11:33;250032.00;0.83;432.01;663.00;0.00;1.77;;;;;31.70;1.00;;;;;;2304779;39;3599;-87
2022/07/15 06:14:01;139152.00;0.46;241.11;0.00;0.00;0.62;;;;;32.50;1.00;;;;;;2320758;39;3739;-86
2022/07/15 06:16:28;638671.00;2.13;1101.04;1494.00;0.00;3.21;;;;;33.00;1.00;;;;;;2276164;60;1762;-86
2022/07/15 06:21:29;1467633.00;4.89;2582.36;0.00;0.00;0.62;;;;;34.30;1.00;;;;;;2325787;40;3520;-87
2022/07/15 06:23:58;313504.00;1.05;541.13;0.00;0.00;0.62;;;;;34.50;1.00;;;;;;2276529;60;1741;-87
2022/07/15 06:26:25;458933.00;1.53;791.15;116413.00;0.39;201.89;;;;;35.20;1.00;;;;;;2276372;60;1011;-88
2022/07/15 06:28:53;743971.00;2.48;1283.58;95373.00;0.32;165.58;;;;;35.50;1.00;;;;;;2276330;60;1252;-86
2022/07/15 06:31:20;1031758.00;3.44;1788.80;112899.00;0.38;195.83;;;;;35.10;1.00;;;;;;2276427;60;2008;-86
2022/07/15 06:33:47;759687.00;2.53;1310.91;89226.00;0.30;154.97;;;;;34.70;1.00;;;;;;2276471;60;1514;-86
2022/07/15 06:36:14;728663.00;2.43;1256.98;85050.00;0.28;147.76;;;;;35.10;1.00;;;;;;2276384;60;908;-87
2022/07/15 06:38:42;747160.00;2.49;1289.12;6064.00;0.02;11.13;;;;;35.10;1.00;;;;;;2276240;60;1601;-85
2022/07/15 06:41:11;893535.00;2.98;1544.77;13377.00;0.04;23.80;;;;;35.40;1.00;;;;;;2296613;40;3759;-86
2022/07/15 06:46:08;1688344.00;5.63;3002.80;26889.00;0.09;47.20;;;;;35.60;1.00;;;;;;2269550;61;1462;-85
2022/07/15 06:48:35;717323.00;2.39;1237.29;66471.00;0.22;115.66;;;;;35.20;1.00;;;;;;2268200;61;1021;-85
2022/07/15 06:51:02;968339.00;3.23;1676.48;814.00;0.00;2.03;;;;;35.10;1.00;;;;;;2306043;56;3731;-85
2022/07/15 06:53:30;634163.00;2.11;1093.25;0.00;0.00;0.62;;;;;35.70;1.00;;;;;;2276239;60;961;-85
2022/07/15 06:55:58;918526.00;3.06;1588.68;34081.00;0.11;59.65;;;;;35.80;1.00;;;;;;2283950;39;3575;-88
2022/07/15 06:58:28;869645.00;2.90;1502.87;100883.00;0.34;175.10;;;;;36.90;1.00;;;;;;2288914;40;3593;-84
2022/07/15 07:00:55;120816344.00;402.72;71439680.00;27929.00;0.09;49.00;;;;;36.80;1.00;;;;;;2276221;60;1607;-89
2022/07/15 07:03:23;842923.00;2.81;1456.09;110101.00;0.37;191.00;;;;;37.00;1.00;;;;;;2276150;60;2381;-86
2022/07/15 07:05:50;539269.00;1.80;929.46;22660.00;0.08;39.88;;;;;36.90;1.00;;;;;;2276794;60;1031;-85
2022/07/15 07:08:17;1238275.00;4.13;2159.58;52063.00;0.17;90.75;;;;;36.80;1.00;;;;;;2276899;60;1008;-86
2022/07/15 07:10:45;661627.00;2.21;1140.76;10767.00;0.04;19.28;;;;;36.00;1.00;;;;;;2276949;60;1915;-86
2022/07/15 07:15:44;1609615.00;5.37;2851.13;0.00;0.00;0.62;;;;;36.90;1.00;;;;;;2270555;61;1416;-88
2022/07/15 07:18:12;1004005.00;3.35;1739.57;45255.00;0.15;78.98;;;;;37.40;1.00;;;;;;2268709;61;1616;-88
2022/07/15 07:23:09;1725242.00;5.75;3074.58;0.00;0.00;0.62;;;;;37.90;1.00;;;;;;2270491;61;1414;-87
2022/07/15 07:25:37;363857.00;1.21;627.68;0.00;0.00;0.62;;;;;37.70;1.00;;;;;;2268756;61;1052;-85
2022/07/15 07:28:04;558264.00;1.86;962.21;94905.00;0.32;164.78;;;;;37.30;1.00;;;;;;2268575;61;931;-87
2022/07/15 07:30:31;426493.00;1.42;735.36;84353.00;0.28;146.56;;;;;37.20;1.00;;;;;;2275631;55;3752;-88
2022/07/15 07:33:00;507620.00;1.69;874.94;59664.00;0.20;103.90;;;;;37.70;1.00;;;;;;2321413;39;3613;-85
2022/07/15 07:35:27;348430.00;1.16;601.16;0.00;0.00;0.62;;;;;37.50;1.00;;;;;;2272870;61;933;-83
2022/07/15 07:40:22;1110170.00;3.70;1928.62;52798.00;0.18;92.02;;;;;37.10;1.00;;;;;;2270378;61;1481;-85
2022/07/15 07:42:48;229488.00;0.76;396.67;0.00;0.00;0.62;;;;;37.10;1.00;;;;;;2268708;61;1085;-85
2022/07/15 07:45:16;296136.00;0.99;511.28;0.00;0.00;0.62;;;;;36.60;1.00;;;;;;2268765;61;793;-87
2022/07/15 07:47:43;434099.00;1.45;748.43;0.00;0.00;0.62;;;;;36.50;1.00;;;;;;2279561;39;3763;-87
2022/07/15 07:50:12;621692.00;2.07;1071.69;51531.00;0.17;89.83;;;;;37.20;1.00;;;;;;2329360;40;3716;-86
2022/07/15 07:52:42;563683.00;1.88;971.55;77166.00;0.26;134.14;;;;;37.50;1.00;;;;;;2276839;55;3597;-85
2022/07/15 07:55:10;617837.00;2.06;1065.03;0.00;0.00;0.62;;;;;37.40;1.00;;;;;;2284855;40;3610;-85
2022/07/15 07:57:57;823490.00;2.74;1422.12;13446.00;0.04;23.92;;;;;37.30;1.00;;;;;;2329445;40;3618;-86
2022/07/15 08:03:01;369964.00;1.23;638.17;38981.00;0.13;68.13;;;;;36.80;1.00;;;;;;2340003;56;1802;-87
2022/07/15 08:05:30;106793.00;0.36;185.30;0.00;0.00;0.62;;;;;36.60;1.00;;;;;;2303551;39;3753;-85
2022/07/15 08:08:09;256287.00;0.85;442.76;0.00;0.00;0.62;;;;;36.40;1.00;;;;;;2301733;55;3757;-85
2022/07/15 08:10:36;1177214.00;3.92;2049.08;70146.00;0.23;122.01;;;;;36.90;1.00;;;;;;2270147;61;1594;-85
2022/07/15 08:13:04;295219.00;0.98;509.70;0.00;0.00;0.62;;;;;36.90;1.00;;;;;;2293201;40;3562;-86
2022/07/15 08:18:03;1162198.00;3.87;2022.02;0.00;0.00;0.62;;;;;36.20;1.00;;;;;;2283997;55;3670;-87
2022/07/15 08:20:32;345711.00;1.15;596.49;0.00;0.00;0.62;;;;;35.60;1.00;;;;;;2301080;39;3688;-85
2022/07/15 08:25:28;824738.00;2.75;1424.30;0.00;0.00;0.62;;;;;36.50;1.00;;;;;;2293627;39;3538;-86
2022/07/15 08:27:56;532973.00;1.78;918.61;1956.00;0.01;4.01;;;;;36.60;1.00;;;;;;2291370;56;3745;-86
2022/07/15 08:32:55;122315352.00;407.72;74134480.00;101057.00;0.34;175.40;;;;;36.10;1.00;;;;;;2298677;40;3455;-83
2022/07/15 08:35:22;857827.00;2.86;1482.17;34450.00;0.11;60.28;;;;;36.10;1.00;;;;;;2276803;60;1252;-84
2022/07/15 08:40:19;1602444.00;5.34;2837.41;18817.00;0.06;33.22;;;;;36.00;1.00;;;;;;2293483;40;3536;-85
2022/07/15 08:45:17;1271679.00;4.24;2220.37;15168.00;0.05;26.90;;;;;35.40;1.00;;;;;;2274168;61;1420;-86
2022/07/15 08:47:46;804962.00;2.68;1389.78;21375.00;0.07;37.65;;;;;35.10;1.00;;;;;;2272535;61;1011;-86
2022/07/15 08:50:18;789276.00;2.63;1362.43;44536.00;0.15;77.74;;;;;35.30;1.00;;;;;;2272463;61;1683;-86
2022/07/15 08:52:46;1048494.00;3.49;1818.55;102509.00;0.34;177.90;;;;;35.30;1.00;;;;;;2278750;39;3467;-85
2022/07/15 08:55:15;86009.00;0.29;149.42;0.00;0.00;0.62;;;;;35.10;1.00;;;;;;2276568;60;1061;-85
2022/07/15 08:57:46;234434.00;0.78;405.18;0.00;0.00;0.62;;;;;35.10;1.00;;;;;;2276684;60;1227;-85
2022/07/15 09:00:14;258391.00;0.86;446.38;0.00;0.00;0.62;;;;;35.20;1.00;;;;;;2276528;60;1532;-85
2022/07/15 09:02:41;541766.00;1.81;933.77;50416.00;0.17;87.91;;;;;34.70;1.00;;;;;;2272645;61;1191;-85
2022/07/15 09:05:21;387506.00;1.29;668.33;29792.00;0.10;52.22;;;;;35.20;1.00;;;;;;2272716;61;1018;-83
2022/07/15 09:07:59;546615.00;1.82;942.12;20687.00;0.07;36.46;;;;;34.90;1.00;;;;;;2272728;61;941;-84
2022/07/15 09:10:47;52796.00;0.18;92.02;0.00;0.00;0.62;;;;;34.20;1.00;;;;;;2272610;61;1363;-85
2022/07/15 09:13:26;71037.00;0.24;123.55;0.00;0.00;0.62;;;;;33.50;1.00;;;;;;2272596;61;2007;-85
2022/07/15 09:15:55;82510.00;0.28;143.37;0.00;0.00;0.62;;;;;33.20;1.00;;;;;;2272637;61;1015;-84
2022/07/15 09:18:24;71616.00;0.24;124.55;0.00;0.00;0.62;;;;;33.40;1.00;;;;;;2272658;61;956;-85
2022/07/15 09:20:51;30378.00;0.10;53.24;0.00;0.00;0.62;;;;;33.60;1.00;;;;;;2272634;61;1393;-84
2022/07/15 09:23:29;62244.00;0.21;108.36;0.00;0.00;0.62;;;;;33.50;1.00;;;;;;2272551;61;1104;-84
2022/07/15 09:25:56;34950.00;0.12;61.15;0.00;0.00;0.62;;;;;33.10;1.00;;;;;;2272385;61;1068;-84
2022/07/15 09:28:37;78340.00;0.26;136.17;0.00;0.00;0.62;;;;;32.70;1.00;;;;;;2272206;61;1070;-85
2022/07/15 09:33:52;182657.00;0.61;316.07;0.00;0.00;0.62;;;;;32.60;1.00;;;;;;2272408;61;779;-84
2022/07/15 09:36:21;221193.00;0.74;382.40;58628.00;0.20;102.10;;;;;33.00;1.00;;;;;;2272453;61;867;-84
2022/07/15 09:41:27;1222795.00;4.08;2131.49;0.00;0.00;0.62;;;;;32.20;1.00;;;;;;2273700;61;1416;-84
2022/07/15 09:43:57;303036.00;1.01;523.14;0.00;0.00;0.62;;;;;32.10;1.00;;;;;;2272211;61;1025;-82
2022/07/15 09:46:27;618549.00;2.06;1066.26;161883.00;0.54;280.28;;;;;32.20;1.00;;;;;;2272194;61;1270;-83
2022/07/15 09:48:55;239560.00;0.80;413.99;61496.00;0.20;107.06;;;;;32.30;1.00;;;;;;2272222;61;1719;-82
2022/07/15 09:51:24;252210.00;0.84;435.75;18990.00;0.06;33.52;;;;;32.10;1.00;;;;;;2272218;61;2006;-83
2022/07/15 09:53:51;264193.00;0.88;456.36;0.00;0.00;0.62;;;;;31.50;1.00;;;;;;2272357;61;1091;-84
2022/07/15 09:56:25;31598.00;0.11;55.35;0.00;0.00;0.62;;;;;31.50;1.00;;;;;;2272440;61;956;-85
2022/07/15 09:58:53;0.00;0.00;0.62;0.00;0.00;0.62;;;;;31.30;1.00;;;;;;2272476;61;1048;-84
2022/07/15 10:01:21;8878.00;0.03;16.01;0.00;0.00;0.62;;;;;30.80;1.00;;;;;;2272449;61;2063;-85
2022/07/15 10:03:50;56194.00;0.19;97.90;0.00;0.00;0.62;;;;;30.50;1.00;;;;;;2272343;61;1130;-84
2022/07/15 10:06:19;0.00;0.00;0.62;0.00;0.00;0.62;;;;;30.60;1.00;;;;;;2272198;61;976;-83
2022/07/15 10:08:49;0.00;0.00;0.62;0.00;0.00;0.62;;;;;31.00;1.00;;;;;;2272210;61;1113;-83
2022/07/15 10:11:16;176233.00;0.59;305.00;0.00;0.00;0.62;;;;;31.30;1.00;;;;;;2272399;61;1390;-85
2022/07/15 10:14:22;188061.00;0.63;325.37;5321.00;0.02;9.84;;;;;31.60;1.00;;;;;;2272364;61;2034;-85
2022/07/15 10:17:28;0.00;0.00;0.62;0.00;0.00;0.62;;;;;31.50;1.00;;;;;;2272298;61;1298;-85
2022/07/15 10:20:37;41831.00;0.14;73.06;0.00;0.00;0.62;;;;;30.90;1.00;;;;;;2272307;61;2177;-85
2022/07/15 10:23:22;123620.00;0.41;214.33;0.00;0.00;0.62;;;;;30.70;1.00;;;;;;2263856;61;1364;-86
2022/07/15 10:26:01;0.00;0.00;0.62;0.00;0.00;0.62;;;;;30.70;1.00;;;;;;2263840;61;1330;-85
2022/07/15 10:28:41;261738.00;0.87;452.14;39583.00;0.13;69.17;;;;;30.70;1.00;;;;;;2263896;61;1129;-84
2022/07/15 10:31:16;67775.00;0.23;117.92;0.00;0.00;0.62;;;;;30.90;1.00;;;;;;2263651;61;1450;-85
2022/07/15 10:36:15;856758.00;2.86;1480.30;0.00;0.00;0.62;;;;;30.90;1.00;;;;;;2269923;61;1464;-85
2022/07/15 10:38:42;225728.00;0.75;390.20;0.00;0.00;0.62;;;;;31.00;1.00;;;;;;2268587;61;1148;-84
2022/07/15 10:41:14;40048.00;0.13;69.97;0.00;0.00;0.62;;;;;30.80;1.00;;;;;;2269548;61;1394;-84
2022/07/15 10:43:48;52807.00;0.18;92.04;0.00;0.00;0.62;;;;;31.10;1.00;;;;;;2269465;61;964;-84
2022/07/15 10:46:27;231229.00;0.77;399.66;0.00;0.00;0.62;;;;;31.40;1.00;;;;;;2269570;61;1023;-85
2022/07/15 10:49:39;22632.00;0.08;39.83;0.00;0.00;0.62;;;;;31.20;1.00;;;;;;2269528;61;1058;-84
2022/07/15 10:52:15;514360.00;1.71;886.55;36704.00;0.12;64.19;;;;;30.90;1.00;;;;;;2268681;61;1915;-83
2022/07/15 10:54:50;733263.00;2.44;1264.97;46472.00;0.15;81.08;;;;;30.80;1.00;;;;;;2269480;61;1606;-84
2022/07/15 10:57:20;860204.00;2.87;1486.33;40626.00;0.14;70.97;;;;;30.60;1.00;;;;;;2269443;61;2226;-85
2022/07/15 10:59:55;356066.00;1.19;614.29;7101.00;0.02;12.93;;;;;30.60;1.00;;;;;;2269439;61;1285;-84
2022/07/15 11:02:25;563087.00;1.88;970.52;61536.00;0.21;107.13;;;;;30.90;1.00;;;;;;2269249;61;1416;-84
2022/07/15 11:05:14;410179.00;1.37;707.30;61900.00;0.21;107.76;;;;;31.20;1.00;;;;;;2269250;61;1489;-83
2022/07/15 11:07:42;921831.00;3.07;1594.50;116718.00;0.39;202.42;;;;;31.10;1.00;;;;;;2269437;61;1164;-85
2022/07/15 11:10:21;362133.00;1.21;624.71;89355.00;0.30;155.19;;;;;30.90;1.00;;;;;;2269424;61;1070;-83
2022/07/15 11:13:05;165733.00;0.55;286.92;0.00;0.00;0.62;;;;;30.30;1.00;;;;;;2269160;61;2008;-86
2022/07/15 11:15:33;156228.00;0.52;270.54;26808.00;0.09;47.06;;;;;30.20;1.00;;;;;;2269145;61;1051;-85
2022/07/15 11:18:01;62450.00;0.21;108.71;0.00;0.00;0.62;;;;;30.10;1.00;;;;;;2269193;61;1098;-84